Flight Number: AVA5127 Duration: 2:30
Departure: Airport Marrakech (GMMX) at 16:30 Distance: 958.942 Nm
Arrival: Tunis-Carthage (DTTA) at 19:00 Equipment: B737

Weather Information
Marrakech, Morocco (GMMX) 31-37N 008-02W 466M Jun 19, 2024 - 08:30 AM EDT / 2024.06.19 1230 UTC
Wind: from the WNW (290 degrees) at 6 MPH (5 KT) (direction variable):0
Visibility: greater than 7 mile(s):0
Sky conditions: mostly cloudy Temperature: 78 F (26 C) Dew Point: 59 F (15 C) Relative Humidity: 50% Pressure (altimeter): 30.09 in. Hg (1019 hPa)
ob: GMMX 191230Z 29005KT 230V010 9999 BKN023 26/15 Q1019 NOSIG cycle: 12
Sunrise: 05:30 Sunset: 19:37 (UTC)

Tunis-Carthage, Tunisia (DTTA) 36-50N 010-14E 4M Jun 19, 2024 - 08:30 AM EDT / 2024.06.19 1230 UTC
Wind: from the ESE (110 degrees) at 9 MPH (8 KT) (direction variable):0
Visibility: greater than 7 mile(s):0
Sky conditions: mostly clear Temperature: 93 F (34 C) Heat index: 95.9 F (35.5 C):1 Dew Point: 66 F (19 C) Relative Humidity: 41% Pressure (altimeter): 29.94 in. Hg (1014 hPa)
ob: DTTA 191230Z 11008KT 060V170 9999 FEW026 34/19 Q1014 cycle: 12
Sunrise: 04:03 Sunset: 18:38 (UTC)

TAF:2024/06/19 12:13 TAF DTTA 191100Z 1912/2012 15010KT 9999 FEW026 BECMG 1922/1924 VRB03KT BECMG 2007/2009 18015KT

Previous Pireps for this route
Date Flightnr Aircraft Flight time Fuel used Landing rate On time
2019-11-09AVX9600B1900D2.032370-450Charter
(pireps marked green are flown by you)

Route map